sensor_id;sensor_type;location;lat;lon;timestamp;pressure;altitude;pressure_sealevel;temperature;humidity
62697;BME280;48761;42.680;23.312;2023-04-25T00:00:56;94096.88;;;13.02;79.57
62697;BME280;48761;42.680;23.312;2023-04-25T00:03:22;94087.34;;;13.09;79.18
62697;BME280;48761;42.680;23.312;2023-04-25T00:05:48;94076.97;;;13.06;77.11
62697;BME280;48761;42.680;23.312;2023-04-25T00:08:14;94077.69;;;12.49;78.83
62697;BME280;48761;42.680;23.312;2023-04-25T00:10:40;94062.78;;;11.85;82.34
62697;BME280;48761;42.680;23.312;2023-04-25T00:13:06;94061.59;;;11.68;84.47
62697;BME280;48761;42.680;23.312;2023-04-25T00:15:32;94046.44;;;11.68;84.76
62697;BME280;48761;42.680;23.312;2023-04-25T00:17:58;94041.34;;;11.45;86.19
62697;BME280;48761;42.680;23.312;2023-04-25T00:20:24;94030.50;;;11.37;86.23
62697;BME280;48761;42.680;23.312;2023-04-25T00:22:50;94046.47;;;11.78;85.42
62697;BME280;48761;42.680;23.312;2023-04-25T00:25:16;94016.72;;;11.63;85.64
62697;BME280;48761;42.680;23.312;2023-04-25T00:27:42;94041.44;;;11.75;84.34
62697;BME280;48761;42.680;23.312;2023-04-25T00:30:09;94037.59;;;11.58;85.28
62697;BME280;48761;42.680;23.312;2023-04-25T00:32:35;94027.03;;;11.46;87.24
62697;BME280;48761;42.680;23.312;2023-04-25T00:35:01;94021.88;;;11.23;88.19
62697;BME280;48761;42.680;23.312;2023-04-25T00:37:27;94042.78;;;11.59;88.54
62697;BME280;48761;42.680;23.312;2023-04-25T00:39:53;94038.69;;;11.45;89.28
62697;BME280;48761;42.680;23.312;2023-04-25T00:42:19;94040.09;;;11.28;90.59
62697;BME280;48761;42.680;23.312;2023-04-25T00:44:46;94038.75;;;11.65;90.29
62697;BME280;48761;42.680;23.312;2023-04-25T00:47:12;94032.34;;;11.46;91.07
62697;BME280;48761;42.680;23.312;2023-04-25T00:49:38;94024.81;;;11.51;89.81
62697;BME280;48761;42.680;23.312;2023-04-25T00:52:05;94053.38;;;11.49;89.36
62697;BME280;48761;42.680;23.312;2023-04-25T00:54:31;94044.50;;;11.70;89.08
62697;BME280;48761;42.680;23.312;2023-04-25T00:56:57;94016.84;;;11.51;90.03
62697;BME280;48761;42.680;23.312;2023-04-25T00:59:23;94032.16;;;11.69;90.26
62697;BME280;48761;42.680;23.312;2023-04-25T01:01:49;94047.91;;;11.82;90.48
62697;BME280;48761;42.680;23.312;2023-04-25T01:04:15;94035.00;;;11.77;90.63
62697;BME280;48761;42.680;23.312;2023-04-25T01:06:41;94024.31;;;11.58;91.16
62697;BME280;48761;42.680;23.312;2023-04-25T01:09:07;94015.88;;;11.21;91.88
62697;BME280;48761;42.680;23.312;2023-04-25T01:11:33;94017.63;;;11.10;92.69
62697;BME280;48761;42.680;23.312;2023-04-25T01:13:59;94004.94;;;10.93;93.93
62697;BME280;48761;42.680;23.312;2023-04-25T01:16:25;93998.69;;;10.82;93.46
62697;BME280;48761;42.680;23.312;2023-04-25T01:18:51;94019.38;;;11.00;93.56
62697;BME280;48761;42.680;23.312;2023-04-25T01:21:17;94004.34;;;11.42;92.51
62697;BME280;48761;42.680;23.312;2023-04-25T01:23:43;93995.66;;;11.40;91.22
62697;BME280;48761;42.680;23.312;2023-04-25T01:26:10;93999.47;;;11.16;92.09
62697;BME280;48761;42.680;23.312;2023-04-25T01:28:38;94001.50;;;11.34;91.13
62697;BME280;48761;42.680;23.312;2023-04-25T01:31:04;93986.94;;;11.38;90.96
62697;BME280;48761;42.680;23.312;2023-04-25T01:33:30;94003.72;;;11.28;90.23
62697;BME280;48761;42.680;23.312;2023-04-25T01:35:56;93986.75;;;11.19;90.42
62697;BME280;48761;42.680;23.312;2023-04-25T01:38:23;94005.47;;;11.18;91.60
62697;BME280;48761;42.680;23.312;2023-04-25T01:40:51;93990.41;;;10.97;91.74
62697;BME280;48761;42.680;23.312;2023-04-25T01:43:17;94015.97;;;11.09;91.53
62697;BME280;48761;42.680;23.312;2023-04-25T01:45:43;94010.03;;;11.27;91.64
62697;BME280;48761;42.680;23.312;2023-04-25T01:48:10;94002.38;;;11.44;90.24
62697;BME280;48761;42.680;23.312;2023-04-25T01:50:38;94003.72;;;11.28;90.23
62697;BME280;48761;42.680;23.312;2023-04-25T01:53:05;94022.94;;;11.73;89.53
62697;BME280;48761;42.680;23.312;2023-04-25T01:55:31;94012.31;;;11.93;88.16
62697;BME280;48761;42.680;23.312;2023-04-25T01:57:57;94012.75;;;11.98;87.49
62697;BME280;48761;42.680;23.312;2023-04-25T02:00:23;94018.69;;;12.12;86.30
62697;BME280;48761;42.680;23.312;2023-04-25T02:02:49;94016.63;;;12.16;85.50
62697;BME280;48761;42.680;23.312;2023-04-25T02:05:15;94020.44;;;12.33;85.49
62697;BME280;48761;42.680;23.312;2023-04-25T02:07:41;94014.41;;;12.31;85.10
62697;BME280;48761;42.680;23.312;2023-04-25T02:10:08;94007.66;;;12.27;85.22
62697;BME280;48761;42.680;23.312;2023-04-25T02:12:35;94007.66;;;12.27;85.15
62697;BME280;48761;42.680;23.312;2023-04-25T02:15:01;93985.63;;;12.25;84.18
62697;BME280;48761;42.680;23.312;2023-04-25T02:17:27;94001.19;;;12.29;84.02
62697;BME280;48761;42.680;23.312;2023-04-25T02:19:53;93990.25;;;12.23;84.58
62697;BME280;48761;42.680;23.312;2023-04-25T02:22:19;93987.97;;;11.98;86.08
62697;BME280;48761;42.680;23.312;2023-04-25T02:24:46;93980.09;;;11.96;86.27
62697;BME280;48761;42.680;23.312;2023-04-25T02:27:12;93961.31;;;11.88;86.34
62697;BME280;48761;42.680;23.312;2023-04-25T02:29:38;93974.22;;;12.03;86.18
62697;BME280;48761;42.680;23.312;2023-04-25T02:32:04;93975.34;;;12.10;85.71
62697;BME280;48761;42.680;23.312;2023-04-25T02:34:30;93969.44;;;12.06;85.18
62697;BME280;48761;42.680;23.312;2023-04-25T02:36:56;93963.03;;;12.29;84.26
62697;BME280;48761;42.680;23.312;2023-04-25T02:39:22;93943.41;;;12.10;84.09
62697;BME280;48761;42.680;23.312;2023-04-25T02:41:48;93951.41;;;12.20;83.86
62697;BME280;48761;42.680;23.312;2023-04-25T02:44:14;93967.25;;;12.41;83.84
62697;BME280;48761;42.680;23.312;2023-04-25T02:46:40;93972.56;;;12.41;83.92
62697;BME280;48761;42.680;23.312;2023-04-25T02:49:06;93969.50;;;12.36;84.15
62697;BME280;48761;42.680;23.312;2023-04-25T02:51:32;93952.69;;;12.36;83.84
62697;BME280;48761;42.680;23.312;2023-04-25T02:53:58;93942.31;;;12.23;83.32
62697;BME280;48761;42.680;23.312;2023-04-25T02:56:24;93953.13;;;12.31;82.95
62697;BME280;48761;42.680;23.312;2023-04-25T02:58:50;93952.97;;;12.23;83.42
62697;BME280;48761;42.680;23.312;2023-04-25T03:01:16;93954.22;;;12.28;83.50
62697;BME280;48761;42.680;23.312;2023-04-25T03:03:42;93950.84;;;12.16;83.94
62697;BME280;48761;42.680;23.312;2023-04-25T03:06:08;93942.28;;;12.13;84.41
62697;BME280;48761;42.680;23.312;2023-04-25T03:08:34;93940.81;;;11.69;86.08
62697;BME280;48761;42.680;23.312;2023-04-25T03:11:00;93949.78;;;11.68;87.00
62697;BME280;48761;42.680;23.312;2023-04-25T03:13:26;93923.63;;;11.83;86.20
62697;BME280;48761;42.680;23.312;2023-04-25T03:15:52;93934.38;;;11.71;87.00
62697;BME280;48761;42.680;23.312;2023-04-25T03:18:18;93948.28;;;11.34;88.32
62697;BME280;48761;42.680;23.312;2023-04-25T03:20:43;93930.56;;;11.13;88.99
62697;BME280;48761;42.680;23.312;2023-04-25T03:23:10;93941.88;;;11.46;88.63
62697;BME280;48761;42.680;23.312;2023-04-25T03:25:36;93943.38;;;11.29;88.57
62697;BME280;48761;42.680;23.312;2023-04-25T03:28:02;93929.91;;;10.89;90.76
62697;BME280;48761;42.680;23.312;2023-04-25T03:30:27;93940.94;;;10.41;93.91
62697;BME280;48761;42.680;23.312;2023-04-25T03:32:53;93947.38;;;10.82;93.04
62697;BME280;48761;42.680;23.312;2023-04-25T03:35:19;93942.84;;;11.04;91.18
62697;BME280;48761;42.680;23.312;2023-04-25T03:37:45;93947.63;;;10.57;92.14
62697;BME280;48761;42.680;23.312;2023-04-25T03:40:11;93929.53;;;10.29;93.76
62697;BME280;48761;42.680;23.312;2023-04-25T03:42:37;93942.38;;;10.46;93.95
62697;BME280;48761;42.680;23.312;2023-04-25T03:45:04;93950.06;;;10.27;94.87
62697;BME280;48761;42.680;23.312;2023-04-25T03:47:30;93951.88;;;10.27;95.60
62697;BME280;48761;42.680;23.312;2023-04-25T03:49:56;93942.13;;;10.70;94.30
62697;BME280;48761;42.680;23.312;2023-04-25T03:52:22;93945.38;;;11.05;93.23
62697;BME280;48761;42.680;23.312;2023-04-25T03:54:48;93937.38;;;10.31;94.04
62697;BME280;48761;42.680;23.312;2023-04-25T03:57:14;93933.84;;;10.09;96.00
62697;BME280;48761;42.680;23.312;2023-04-25T03:59:40;93940.00;;;10.09;96.06
62697;BME280;48761;42.680;23.312;2023-04-25T04:02:06;93936.31;;;10.01;96.18
62697;BME280;48761;42.680;23.312;2023-04-25T04:04:32;93959.00;;;10.48;95.35
62697;BME280;48761;42.680;23.312;2023-04-25T04:06:58;93961.56;;;10.71;92.69
62697;BME280;48761;42.680;23.312;2023-04-25T04:09:24;93957.59;;;10.43;92.83
62697;BME280;48761;42.680;23.312;2023-04-25T04:11:50;93930.38;;;10.30;93.16
62697;BME280;48761;42.680;23.312;2023-04-25T04:14:16;93956.97;;;10.73;93.10
62697;BME280;48761;42.680;23.312;2023-04-25T04:16:42;93948.38;;;10.91;92.00
62697;BME280;48761;42.680;23.312;2023-04-25T04:19:09;93935.91;;;10.81;91.92
62697;BME280;48761;42.680;23.312;2023-04-25T04:21:35;93956.00;;;10.52;92.76
62697;BME280;48761;42.680;23.312;2023-04-25T04:24:01;93939.09;;;10.53;93.78
62697;BME280;48761;42.680;23.312;2023-04-25T04:26:27;93945.16;;;11.18;91.33
62697;BME280;48761;42.680;23.312;2023-04-25T04:28:53;93938.50;;;10.71;91.79
62697;BME280;48761;42.680;23.312;2023-04-25T04:31:20;93955.50;;;10.59;93.47
62697;BME280;48761;42.680;23.312;2023-04-25T04:33:46;93946.06;;;10.76;92.96
62697;BME280;48761;42.680;23.312;2023-04-25T04:36:12;93951.84;;;10.81;94.01
62697;BME280;48761;42.680;23.312;2023-04-25T04:38:39;93955.41;;;10.49;92.32
62697;BME280;48761;42.680;23.312;2023-04-25T04:41:05;93949.72;;;10.53;93.22
62697;BME280;48761;42.680;23.312;2023-04-25T04:43:31;93948.91;;;10.41;93.79
62697;BME280;48761;42.680;23.312;2023-04-25T04:45:57;93960.91;;;10.36;94.94
62697;BME280;48761;42.680;23.312;2023-04-25T04:48:23;93962.31;;;10.51;95.42
62697;BME280;48761;42.680;23.312;2023-04-25T04:50:48;93947.63;;;10.36;94.63
62697;BME280;48761;42.680;23.312;2023-04-25T04:53:14;93965.09;;;10.38;94.29
62697;BME280;48761;42.680;23.312;2023-04-25T04:55:40;93964.34;;;10.48;94.93
62697;BME280;48761;42.680;23.312;2023-04-25T04:58:07;93969.72;;;11.01;93.09
62697;BME280;48761;42.680;23.312;2023-04-25T05:00:33;93977.63;;;10.91;92.19
62697;BME280;48761;42.680;23.312;2023-04-25T05:02:59;93970.19;;;11.16;90.91
62697;BME280;48761;42.680;23.312;2023-04-25T05:05:24;93976.56;;;11.03;91.54
62697;BME280;48761;42.680;23.312;2023-04-25T05:07:51;93969.47;;;10.82;92.29
62697;BME280;48761;42.680;23.312;2023-04-25T05:10:18;93979.28;;;11.13;91.58
62697;BME280;48761;42.680;23.312;2023-04-25T05:12:44;93985.94;;;10.76;93.26
62697;BME280;48761;42.680;23.312;2023-04-25T05:15:10;93986.06;;;10.74;93.96
62697;BME280;48761;42.680;23.312;2023-04-25T05:17:36;93979.13;;;10.83;92.95
62697;BME280;48761;42.680;23.312;2023-04-25T05:20:03;93974.72;;;11.25;92.54
62697;BME280;48761;42.680;23.312;2023-04-25T05:22:29;93980.47;;;11.30;91.87
62697;BME280;48761;42.680;23.312;2023-04-25T05:24:54;93978.66;;;11.31;91.89
62697;BME280;48761;42.680;23.312;2023-04-25T05:27:20;93978.84;;;11.39;92.21
62697;BME280;48761;42.680;23.312;2023-04-25T05:29:46;93969.53;;;11.24;91.23
62697;BME280;48761;42.680;23.312;2023-04-25T05:32:29;93974.94;;;11.43;91.47
62697;BME280;48761;42.680;23.312;2023-04-25T05:34:55;93983.75;;;11.44;91.54
62697;BME280;48761;42.680;23.312;2023-04-25T05:37:21;93969.56;;;11.34;92.11
62697;BME280;48761;42.680;23.312;2023-04-25T05:39:47;93973.56;;;11.49;89.69
62697;BME280;48761;42.680;23.312;2023-04-25T05:42:13;93978.38;;;11.24;91.03
62697;BME280;48761;42.680;23.312;2023-04-25T05:44:39;93973.53;;;11.39;90.72
62697;BME280;48761;42.680;23.312;2023-04-25T05:47:05;93963.81;;;11.28;89.64
62697;BME280;48761;42.680;23.312;2023-04-25T05:49:30;93988.19;;;11.65;89.07
62697;BME280;48761;42.680;23.312;2023-04-25T05:51:57;93978.09;;;11.79;88.31
62697;BME280;48761;42.680;23.312;2023-04-25T05:54:22;93988.72;;;11.69;89.08
62697;BME280;48761;42.680;23.312;2023-04-25T05:56:48;93986.13;;;11.98;88.38
62697;BME280;48761;42.680;23.312;2023-04-25T05:59:14;93980.38;;;11.93;88.89
62697;BME280;48761;42.680;23.312;2023-04-25T06:01:41;93985.81;;;11.72;89.50
62697;BME280;48761;42.680;23.312;2023-04-25T06:04:07;93968.75;;;11.94;88.60
62697;BME280;48761;42.680;23.312;2023-04-25T06:06:33;93976.19;;;12.01;87.71
62697;BME280;48761;42.680;23.312;2023-04-25T06:08:59;93954.31;;;11.87;88.13
62697;BME280;48761;42.680;23.312;2023-04-25T06:11:25;93984.06;;;12.12;87.33
62697;BME280;48761;42.680;23.312;2023-04-25T06:13:51;93989.00;;;12.27;86.59
62697;BME280;48761;42.680;23.312;2023-04-25T06:16:17;93976.72;;;11.94;85.99
62697;BME280;48761;42.680;23.312;2023-04-25T06:18:43;93985.38;;;11.76;86.52
62697;BME280;48761;42.680;23.312;2023-04-25T06:21:09;93980.09;;;11.96;87.09
62697;BME280;48761;42.680;23.312;2023-04-25T06:23:35;93969.34;;;12.08;85.99
62697;BME280;48761;42.680;23.312;2023-04-25T06:26:01;93983.34;;;12.10;84.85
62697;BME280;48761;42.680;23.312;2023-04-25T06:28:27;93978.69;;;11.82;84.34
62697;BME280;48761;42.680;23.312;2023-04-25T06:30:53;93991.31;;;11.90;86.27
62697;BME280;48761;42.680;23.312;2023-04-25T06:33:19;93971.13;;;11.77;84.71
62697;BME280;48761;42.680;23.312;2023-04-25T06:35:45;93985.66;;;11.73;86.12
62697;BME280;48761;42.680;23.312;2023-04-25T06:38:11;93988.09;;;12.06;84.37
62697;BME280;48761;42.680;23.312;2023-04-25T06:40:37;93965.66;;;12.09;83.31
62697;BME280;48761;42.680;23.312;2023-04-25T06:43:03;93945.06;;;11.91;83.23
62697;BME280;48761;42.680;23.312;2023-04-25T06:45:29;94004.59;;;12.61;81.67
62697;BME280;48761;42.680;23.312;2023-04-25T06:47:54;93995.59;;;12.62;80.49
62697;BME280;48761;42.680;23.312;2023-04-25T06:50:21;93997.53;;;12.80;80.06
62697;BME280;48761;42.680;23.312;2023-04-25T06:52:46;94003.16;;;12.77;79.66
62697;BME280;48761;42.680;23.312;2023-04-25T06:55:12;93991.22;;;12.51;81.24
62697;BME280;48761;42.680;23.312;2023-04-25T06:57:38;93987.44;;;12.54;79.71
62697;BME280;48761;42.680;23.312;2023-04-25T07:00:05;93989.41;;;12.52;81.23
62697;BME280;48761;42.680;23.312;2023-04-25T07:02:31;93989.94;;;12.95;79.76
62697;BME280;48761;42.680;23.312;2023-04-25T07:04:57;93989.66;;;12.88;79.00
62697;BME280;48761;42.680;23.312;2023-04-25T07:07:22;93993.09;;;12.51;79.60
62697;BME280;48761;42.680;23.312;2023-04-25T07:09:48;93975.25;;;12.21;80.34
62697;BME280;48761;42.680;23.312;2023-04-25T07:12:14;93975.56;;;12.28;80.65
62697;BME280;48761;42.680;23.312;2023-04-25T07:14:40;93988.88;;;12.38;80.77
62697;BME280;48761;42.680;23.312;2023-04-25T07:17:06;93998.41;;;12.31;80.86
62697;BME280;48761;42.680;23.312;2023-04-25T07:19:32;94007.38;;;12.30;81.23
62697;BME280;48761;42.680;23.312;2023-04-25T07:21:58;93997.28;;;12.53;80.20
62697;BME280;48761;42.680;23.312;2023-04-25T07:24:24;93993.31;;;12.77;79.30
62697;BME280;48761;42.680;23.312;2023-04-25T07:26:50;93993.91;;;12.61;80.03
62697;BME280;48761;42.680;23.312;2023-04-25T07:29:16;93990.25;;;12.42;80.49
62697;BME280;48761;42.680;23.312;2023-04-25T07:31:42;93980.44;;;12.43;80.79
62697;BME280;48761;42.680;23.312;2023-04-25T07:34:08;93979.59;;;12.32;81.09
62697;BME280;48761;42.680;23.312;2023-04-25T07:36:34;93981.00;;;12.37;81.08
62697;BME280;48761;42.680;23.312;2023-04-25T07:39:00;93982.69;;;12.48;80.58
62697;BME280;48761;42.680;23.312;2023-04-25T07:41:26;93973.97;;;12.65;80.88
62697;BME280;48761;42.680;23.312;2023-04-25T07:43:52;93957.16;;;12.55;80.20
62697;BME280;48761;42.680;23.312;2023-04-25T07:46:18;93973.69;;;12.78;79.88
62697;BME280;48761;42.680;23.312;2023-04-25T07:48:44;93968.06;;;12.92;79.20
62697;BME280;48761;42.680;23.312;2023-04-25T07:51:10;93977.59;;;12.94;79.81
62697;BME280;48761;42.680;23.312;2023-04-25T07:53:36;93977.84;;;13.01;80.17
62697;BME280;48761;42.680;23.312;2023-04-25T07:56:02;93954.53;;;13.03;79.80
62697;BME280;48761;42.680;23.312;2023-04-25T07:58:28;93951.47;;;12.98;78.84
62697;BME280;48761;42.680;23.312;2023-04-25T08:00:54;93969.13;;;13.09;78.22
62697;BME280;48761;42.680;23.312;2023-04-25T08:03:20;93968.00;;;13.11;78.53
62697;BME280;48761;42.680;23.312;2023-04-25T08:05:45;93951.44;;;13.08;77.57
62697;BME280;48761;42.680;23.312;2023-04-25T08:08:11;93959.19;;;13.39;76.58
62697;BME280;48761;42.680;23.312;2023-04-25T08:10:37;93964.47;;;13.59;75.07
62697;BME280;48761;42.680;23.312;2023-04-25T08:13:03;93970.25;;;13.83;73.97
62697;BME280;48761;42.680;23.312;2023-04-25T08:15:29;93968.06;;;14.51;72.54
62697;BME280;48761;42.680;23.312;2023-04-25T08:17:55;93953.16;;;14.49;70.76
62697;BME280;48761;42.680;23.312;2023-04-25T08:20:21;93930.03;;;14.39;69.57
62697;BME280;48761;42.680;23.312;2023-04-25T08:22:47;93960.50;;;14.10;69.48
62697;BME280;48761;42.680;23.312;2023-04-25T08:25:13;93957.13;;;14.44;68.29
62697;BME280;48761;42.680;23.312;2023-04-25T08:27:39;93946.00;;;15.21;66.46
62697;BME280;48761;42.680;23.312;2023-04-25T08:30:05;93946.06;;;15.29;65.08
62697;BME280;48761;42.680;23.312;2023-04-25T08:32:33;93948.28;;;15.42;65.12
62697;BME280;48761;42.680;23.312;2023-04-25T08:34:59;93948.81;;;15.46;64.94
62697;BME280;48761;42.680;23.312;2023-04-25T08:37:25;93947.78;;;15.39;66.45
62697;BME280;48761;42.680;23.312;2023-04-25T08:39:51;93947.34;;;15.17;71.25
62697;BME280;48761;42.680;23.312;2023-04-25T08:42:17;93955.22;;;14.73;74.67
62697;BME280;48761;42.680;23.312;2023-04-25T08:44:45;93964.09;;;14.74;73.31
62697;BME280;48761;42.680;23.312;2023-04-25T08:47:11;93954.94;;;14.85;75.03
62697;BME280;48761;42.680;23.312;2023-04-25T08:49:39;93964.31;;;14.62;73.49
62697;BME280;48761;42.680;23.312;2023-04-25T08:52:09;93944.31;;;14.30;75.39
62697;BME280;48761;42.680;23.312;2023-04-25T08:54:35;93957.84;;;14.28;74.27
62697;BME280;48761;42.680;23.312;2023-04-25T08:57:02;93944.69;;;14.35;74.56
62697;BME280;48761;42.680;23.312;2023-04-25T08:59:32;93943.97;;;14.88;71.18
62697;BME280;48761;42.680;23.312;2023-04-25T09:01:58;93940.03;;;14.82;70.41
62697;BME280;48761;42.680;23.312;2023-04-25T09:04:24;93947.19;;;14.73;70.68
62697;BME280;48761;42.680;23.312;2023-04-25T09:06:50;93935.38;;;14.84;71.26
62697;BME280;48761;42.680;23.312;2023-04-25T09:09:16;93942.69;;;14.55;71.89
62697;BME280;48761;42.680;23.312;2023-04-25T09:11:42;93904.59;;;14.35;71.33
62697;BME280;48761;42.680;23.312;2023-04-25T09:19:24;93928.94;;;15.22;68.69
62697;BME280;48761;42.680;23.312;2023-04-25T09:21:51;93924.88;;;15.96;68.59
62697;BME280;48761;42.680;23.312;2023-04-25T09:27:08;93911.03;;;15.57;68.64
62697;BME280;48761;42.680;23.312;2023-04-25T09:29:36;93922.09;;;15.63;66.97
62697;BME280;48761;42.680;23.312;2023-04-25T09:32:13;93924.97;;;15.34;67.32
62697;BME280;48761;42.680;23.312;2023-04-25T09:34:40;93913.69;;;15.14;66.94
62697;BME280;48761;42.680;23.312;2023-04-25T09:37:09;93913.00;;;15.47;67.32
62697;BME280;48761;42.680;23.312;2023-04-25T09:39:36;93917.19;;;16.01;67.56
62697;BME280;48761;42.680;23.312;2023-04-25T09:42:03;93911.38;;;16.56;67.22
62697;BME280;48761;42.680;23.312;2023-04-25T09:44:29;93911.53;;;16.80;64.79
62697;BME280;48761;42.680;23.312;2023-04-25T09:46:55;93917.38;;;16.92;63.72
62697;BME280;48761;42.680;23.312;2023-04-25T09:49:21;93893.22;;;17.09;63.24
62697;BME280;48761;42.680;23.312;2023-04-25T09:51:56;93911.72;;;16.70;53.51
62697;BME280;48761;42.680;23.312;2023-04-25T09:54:26;93899.91;;;17.05;51.00
62697;BME280;48761;42.680;23.312;2023-04-25T09:56:53;93908.91;;;17.45;54.98
62697;BME280;48761;42.680;23.312;2023-04-25T09:59:22;93906.88;;;17.47;59.19
62697;BME280;48761;42.680;23.312;2023-04-25T10:01:49;93894.88;;;17.67;60.21
62697;BME280;48761;42.680;23.312;2023-04-25T10:04:22;93906.22;;;17.45;62.07
62697;BME280;48761;42.680;23.312;2023-04-25T10:06:49;93916.53;;;17.00;62.64
62697;BME280;48761;42.680;23.312;2023-04-25T10:09:15;93903.50;;;16.55;64.59
62697;BME280;48761;42.680;23.312;2023-04-25T10:11:42;93918.22;;;16.25;65.23
62697;BME280;48761;42.680;23.312;2023-04-25T10:14:09;93930.56;;;16.01;65.67
62697;BME280;48761;42.680;23.312;2023-04-25T10:16:35;93913.44;;;15.77;59.91
62697;BME280;48761;42.680;23.312;2023-04-25T10:19:02;93938.81;;;15.56;60.98
62697;BME280;48761;42.680;23.312;2023-04-25T10:21:28;93921.63;;;15.32;65.42
62697;BME280;48761;42.680;23.312;2023-04-25T10:23:57;93922.56;;;15.58;66.03
62697;BME280;48761;42.680;23.312;2023-04-25T10:26:24;93915.50;;;16.00;64.40
62697;BME280;48761;42.680;23.312;2023-04-25T10:29:01;93905.00;;;16.41;66.21
62697;BME280;48761;42.680;23.312;2023-04-25T10:31:29;93906.84;;;16.90;64.09
62697;BME280;48761;42.680;23.312;2023-04-25T10:33:55;93886.50;;;17.21;61.78
62697;BME280;48761;42.680;23.312;2023-04-25T10:36:23;93894.59;;;17.53;61.76
62697;BME280;48761;42.680;23.312;2023-04-25T10:38:50;93922.63;;;17.59;59.96
62697;BME280;48761;42.680;23.312;2023-04-25T10:41:20;93911.97;;;17.34;57.95
62697;BME280;48761;42.680;23.312;2023-04-25T10:43:48;93907.78;;;17.23;58.39
62697;BME280;48761;42.680;23.312;2023-04-25T10:46:24;93904.59;;;17.28;55.32
62697;BME280;48761;42.680;23.312;2023-04-25T10:48:55;93907.81;;;17.06;57.64
62697;BME280;48761;42.680;23.312;2023-04-25T10:51:27;93905.53;;;17.52;58.40
62697;BME280;48761;42.680;23.312;2023-04-25T10:54:04;93895.56;;;17.20;58.48
62697;BME280;48761;42.680;23.312;2023-04-25T10:59:18;93894.22;;;17.08;57.06
62697;BME280;48761;42.680;23.312;2023-04-25T11:01:46;93899.78;;;16.89;56.27
62697;BME280;48761;42.680;23.312;2023-04-25T11:04:39;93892.84;;;17.29;54.02
62697;BME280;48761;42.680;23.312;2023-04-25T11:07:39;93903.94;;;17.66;52.05
62697;BME280;48761;42.680;23.312;2023-04-25T11:10:10;93891.44;;;17.81;51.68
62697;BME280;48761;42.680;23.312;2023-04-25T11:12:36;93874.69;;;17.71;50.27
62697;BME280;48761;42.680;23.312;2023-04-25T11:15:06;93871.88;;;17.64;50.82
62697;BME280;48761;42.680;23.312;2023-04-25T11:17:32;93886.84;;;17.58;49.45
62697;BME280;48761;42.680;23.312;2023-04-25T11:19:59;93886.84;;;17.58;49.34
62697;BME280;48761;42.680;23.312;2023-04-25T11:22:27;93870.56;;;17.11;48.73
62697;BME280;48761;42.680;23.312;2023-04-25T11:24:53;93889.84;;;17.07;51.14
62697;BME280;48761;42.680;23.312;2023-04-25T11:27:20;93880.47;;;16.94;50.19
62697;BME280;48761;42.680;23.312;2023-04-25T11:29:46;93890.91;;;16.80;51.88
62697;BME280;48761;42.680;23.312;2023-04-25T11:32:12;93889.09;;;16.64;51.89
62697;BME280;48761;42.680;23.312;2023-04-25T11:34:38;93890.94;;;16.47;52.99
62697;BME280;48761;42.680;23.312;2023-04-25T11:37:04;93898.00;;;16.48;52.49
62697;BME280;48761;42.680;23.312;2023-04-25T11:39:30;93900.84;;;16.30;53.54
62697;BME280;48761;42.680;23.312;2023-04-25T11:41:56;93914.03;;;16.06;54.47
62697;BME280;48761;42.680;23.312;2023-04-25T11:44:22;93919.63;;;15.78;54.07
62697;BME280;48761;42.680;23.312;2023-04-25T11:46:48;93921.91;;;15.56;55.60
62697;BME280;48761;42.680;23.312;2023-04-25T11:49:14;93925.31;;;15.31;57.68
62697;BME280;48761;42.680;23.312;2023-04-25T11:51:42;93907.75;;;15.02;60.95
62697;BME280;48761;42.680;23.312;2023-04-25T11:54:08;93900.44;;;15.39;62.48
62697;BME280;48761;42.680;23.312;2023-04-25T11:56:34;93884.22;;;15.49;62.95
62697;BME280;48761;42.680;23.312;2023-04-25T11:59:05;93869.19;;;15.56;61.99
62697;BME280;48761;42.680;23.312;2023-04-25T12:01:35;93888.63;;;15.75;58.91
62697;BME280;48761;42.680;23.312;2023-04-25T12:04:16;93888.53;;;15.94;57.28
62697;BME280;48761;42.680;23.312;2023-04-25T12:06:43;93890.53;;;15.91;59.14
62697;BME280;48761;42.680;23.312;2023-04-25T12:09:11;93853.97;;;15.57;59.07
62697;BME280;48761;42.680;23.312;2023-04-25T12:11:56;93884.63;;;15.71;59.14
62697;BME280;48761;42.680;23.312;2023-04-25T12:14:25;93886.91;;;15.57;57.95
62697;BME280;48761;42.680;23.312;2023-04-25T12:16:51;93882.84;;;15.45;57.88
62697;BME280;48761;42.680;23.312;2023-04-25T12:19:18;93864.16;;;15.53;58.31
62697;BME280;48761;42.680;23.312;2023-04-25T12:21:44;93872.00;;;15.55;57.65
62697;BME280;48761;42.680;23.312;2023-04-25T12:24:18;93871.50;;;15.51;56.95
62697;BME280;48761;42.680;23.312;2023-04-25T12:27:03;93880.25;;;15.70;55.98
62697;BME280;48761;42.680;23.312;2023-04-25T12:29:33;93885.22;;;16.08;55.93
62697;BME280;48761;42.680;23.312;2023-04-25T12:31:59;93921.91;;;16.16;57.23
62697;BME280;48761;42.680;23.312;2023-04-25T12:34:25;93927.06;;;15.49;60.30
62697;BME280;48761;42.680;23.312;2023-04-25T12:36:52;93922.81;;;15.03;65.45
62697;BME280;48761;42.680;23.312;2023-04-25T12:39:20;93944.13;;;14.86;67.93
62697;BME280;48761;42.680;23.312;2023-04-25T12:41:46;93949.31;;;14.70;70.03
62697;BME280;48761;42.680;23.312;2023-04-25T12:44:13;93957.91;;;14.55;70.62
62697;BME280;48761;42.680;23.312;2023-04-25T12:46:40;93956.59;;;14.59;71.93
62697;BME280;48761;42.680;23.312;2023-04-25T12:49:06;93933.94;;;14.45;72.85
62697;BME280;48761;42.680;23.312;2023-04-25T12:51:32;93923.44;;;14.52;72.06
62697;BME280;48761;42.680;23.312;2023-04-25T12:53:59;93939.47;;;14.70;72.94
62697;BME280;48761;42.680;23.312;2023-04-25T12:56:25;93950.47;;;14.49;73.96
62697;BME280;48761;42.680;23.312;2023-04-25T12:58:51;93945.66;;;14.71;73.59